Time;durP1;ratioP1;P1;durP2;ratioP2;P2;SDS_P1;SDS_P2;PMS_P1;PMS_P2;Temp;Humidity;BMP_temperature;BMP_pressure;BME280_temperature;BME280_humidity;BME280_pressure;Samples;Min_cycle;Max_cycle;Signal;HPM_P1;HPM_P2
2023/06/14 00:00:58;;;;;;;5.15;3.85;;;17.70;75.00;;;;;;5014775;28;20034;-52
2023/06/14 00:03:44;;;;;;;5.10;3.58;;;17.70;75.40;;;;;;5012473;28;20026;-52
2023/06/14 00:06:30;;;;;;;4.75;3.20;;;17.60;75.60;;;;;;5013794;28;20069;-53
2023/06/14 00:09:19;;;;;;;5.10;3.55;;;17.50;75.90;;;;;;5028127;28;20394;-51
2023/06/14 00:12:06;;;;;;;4.63;3.30;;;17.30;76.40;;;;;;5020122;28;20502;-55
2023/06/14 00:14:52;;;;;;;3.90;3.30;;;17.20;77.10;;;;;;5013152;28;20084;-55
2023/06/14 00:17:38;;;;;;;7.20;3.65;;;17.10;77.60;;;;;;5013399;28;20064;-53
2023/06/14 00:20:25;;;;;;;5.38;3.40;;;17.00;77.60;;;;;;5013815;28;20049;-57
2023/06/14 00:23:11;;;;;;;6.85;3.60;;;17.10;77.60;;;;;;5012663;28;20117;-55
2023/06/14 00:25:57;;;;;;;4.53;3.60;;;17.10;77.70;;;;;;5013755;28;20026;-53
2023/06/14 00:28:42;;;;;;;4.85;3.85;;;17.00;77.70;;;;;;5013055;28;20107;-54
2023/06/14 00:31:29;;;;;;;5.60;3.72;;;16.80;78.40;;;;;;5012896;28;20026;-52
2023/06/14 00:34:15;;;;;;;5.00;3.92;;;16.70;79.30;;;;;;5016087;28;20026;-54
2023/06/14 00:37:01;;;;;;;4.78;3.45;;;16.80;78.90;;;;;;5032143;28;20032;-53
2023/06/14 00:39:47;;;;;;;4.47;3.45;;;16.70;79.00;;;;;;5032304;28;20445;-56
2023/06/14 00:42:33;;;;;;;5.07;3.50;;;16.70;79.10;;;;;;5017612;28;20091;-54
2023/06/14 00:45:19;;;;;;;4.65;3.65;;;16.70;79.10;;;;;;5033176;28;20049;-57
2023/06/14 00:48:07;;;;;;;4.38;3.30;;;16.70;79.10;;;;;;5031355;28;20108;-53
2023/06/14 00:50:54;;;;;;;7.70;3.72;;;16.60;79.60;;;;;;5030774;28;20022;-53
2023/06/14 00:53:45;;;;;;;4.05;3.65;;;16.50;80.00;;;;;;5033474;28;20052;-52
2023/06/14 00:56:32;;;;;;;4.78;3.63;;;16.40;80.60;;;;;;5019050;28;20077;-51
2023/06/14 00:59:18;;;;;;;4.75;3.70;;;16.30;81.10;;;;;;5021469;28;20038;-51
2023/06/14 01:02:04;;;;;;;5.75;4.03;;;16.20;80.90;;;;;;5013124;28;20499;-53
2023/06/14 01:04:51;;;;;;;7.88;4.00;;;16.20;81.40;;;;;;5012015;28;20026;-52
2023/06/14 01:08:26;;;;;;;6.35;4.13;;;16.10;82.20;;;;;;5012219;28;20026;-54
2023/06/14 01:11:20;;;;;;;4.70;3.30;;;16.30;81.70;;;;;;4976589;28;20455;-55
2023/06/14 01:14:07;;;;;;;5.70;3.78;;;16.30;82.10;;;;;;5012760;28;20038;-54
2023/06/14 01:16:55;;;;;;;5.13;4.00;;;16.40;81.40;;;;;;5012850;28;20034;-54
2023/06/14 01:19:45;;;;;;;4.70;3.55;;;16.40;81.20;;;;;;5012772;28;20038;-51
2023/06/14 01:22:31;;;;;;;5.70;3.88;;;16.50;80.80;;;;;;5013147;28;20034;-53
2023/06/14 01:25:20;;;;;;;5.30;4.15;;;16.40;81.50;;;;;;5010900;28;20029;-55
2023/06/14 01:28:10;;;;;;;6.38;4.03;;;16.50;81.20;;;;;;5026174;28;20425;-54
2023/06/14 01:30:56;;;;;;;6.20;3.88;;;16.50;81.40;;;;;;5031190;28;20056;-54
2023/06/14 01:33:43;;;;;;;5.38;3.90;;;16.40;81.40;;;;;;5032468;28;20052;-51
2023/06/14 01:36:29;;;;;;;5.18;4.20;;;16.30;82.40;;;;;;5030756;28;20592;-54
2023/06/14 01:39:15;;;;;;;8.27;4.10;;;16.20;82.30;;;;;;5026901;28;20026;-50
2023/06/14 01:42:01;;;;;;;4.38;3.60;;;16.30;82.40;;;;;;5012321;28;20580;-55
2023/06/14 01:44:48;;;;;;;7.03;4.20;;;16.30;82.50;;;;;;5030809;28;20036;-55
2023/06/14 01:47:35;;;;;;;5.60;3.80;;;16.20;82.70;;;;;;5032100;28;20518;-52
2023/06/14 01:50:21;;;;;;;4.32;3.67;;;16.00;83.40;;;;;;5029321;28;20029;-51
2023/06/14 01:53:08;;;;;;;5.20;3.83;;;16.20;83.60;;;;;;5012867;28;20034;-55
2023/06/14 01:55:54;;;;;;;5.07;3.83;;;16.30;82.70;;;;;;5012416;28;20037;-52
2023/06/14 01:58:40;;;;;;;4.95;3.85;;;16.30;82.20;;;;;;5011857;28;20132;-51
2023/06/14 02:01:26;;;;;;;5.22;4.07;;;16.20;83.20;;;;;;5012080;28;20121;-54
2023/06/14 02:04:12;;;;;;;4.90;3.70;;;16.30;83.00;;;;;;5026662;28;20040;-52
2023/06/14 02:06:58;;;;;;;4.80;3.60;;;16.40;82.70;;;;;;5031124;28;20450;-54
2023/06/14 02:09:44;;;;;;;6.75;4.13;;;16.40;82.80;;;;;;5030409;28;20105;-51
2023/06/14 02:12:30;;;;;;;4.70;3.70;;;16.40;83.40;;;;;;5031453;28;20490;-51
2023/06/14 02:15:17;;;;;;;6.38;3.90;;;16.30;83.00;;;;;;5031448;28;20087;-53
2023/06/14 02:18:04;;;;;;;4.50;3.50;;;16.20;84.30;;;;;;5032086;28;20486;-54
2023/06/14 02:20:50;;;;;;;6.55;3.70;;;16.20;84.10;;;;;;5031801;28;20040;-53
2023/06/14 02:23:36;;;;;;;4.50;3.53;;;16.10;84.20;;;;;;5032711;28;20026;-53
2023/06/14 02:26:25;;;;;;;4.43;3.92;;;16.10;83.70;;;;;;5033107;28;20680;-54
2023/06/14 02:29:14;;;;;;;4.72;3.70;;;16.00;84.10;;;;;;5037674;28;20045;-55
2023/06/14 02:32:00;;;;;;;7.60;4.22;;;15.80;84.60;;;;;;5041970;28;20528;-54
2023/06/14 02:34:49;;;;;;;7.00;4.13;;;15.70;85.80;;;;;;5046115;28;20132;-54
2023/06/14 02:37:35;;;;;;;7.00;4.22;;;15.50;86.50;;;;;;5048671;28;20509;-54
2023/06/14 02:40:22;;;;;;;4.47;4.00;;;15.50;86.50;;;;;;5046954;28;20090;-49
2023/06/14 02:43:08;;;;;;;6.80;3.90;;;15.40;87.20;;;;;;5036671;28;20061;-50
2023/06/14 02:45:55;;;;;;;6.07;3.95;;;15.50;87.80;;;;;;5034241;28;20095;-52
2023/06/14 02:48:41;;;;;;;5.75;4.40;;;15.70;86.90;;;;;;5021584;28;20506;-51
2023/06/14 02:51:27;;;;;;;4.53;3.80;;;15.80;86.30;;;;;;5034839;28;20100;-47
2023/06/14 02:54:13;;;;;;;6.25;4.15;;;15.70;86.00;;;;;;5035135;28;20022;-50
2023/06/14 02:56:59;;;;;;;5.00;3.95;;;15.60;86.60;;;;;;5015082;28;20502;-51
2023/06/14 02:59:45;;;;;;;5.43;4.05;;;15.40;87.50;;;;;;5015361;28;20038;-51
2023/06/14 03:02:31;;;;;;;6.18;4.30;;;15.40;88.30;;;;;;5014580;28;20113;-51
2023/06/14 03:05:21;;;;;;;6.40;4.13;;;15.40;88.50;;;;;;5015334;28;20053;-52
2023/06/14 03:08:06;;;;;;;5.15;3.90;;;15.40;87.90;;;;;;5013888;28;20541;-51
2023/06/14 03:10:53;;;;;;;6.25;3.90;;;15.50;88.30;;;;;;5014868;28;20037;-49
2023/06/14 03:13:40;;;;;;;6.05;4.20;;;15.60;87.90;;;;;;5016141;28;20022;-50
2023/06/14 03:16:28;;;;;;;4.38;3.90;;;15.70;87.20;;;;;;5018819;28;20021;-51
2023/06/14 03:19:14;;;;;;;5.00;3.80;;;15.50;87.30;;;;;;5033819;28;20029;-48
2023/06/14 03:22:00;;;;;;;5.78;4.38;;;15.50;87.90;;;;;;5033373;28;20022;-50
2023/06/14 03:24:47;;;;;;;5.60;4.10;;;15.50;87.70;;;;;;5034606;28;20446;-47
2023/06/14 03:27:33;;;;;;;5.78;4.00;;;15.30;88.60;;;;;;5034486;28;20037;-51
2023/06/14 03:30:18;;;;;;;6.18;4.13;;;15.40;88.60;;;;;;5037160;28;20017;-51
2023/06/14 03:33:04;;;;;;;6.25;4.40;;;15.40;88.30;;;;;;5038629;28;20029;-52
2023/06/14 03:35:50;;;;;;;7.10;4.32;;;15.30;88.60;;;;;;5039958;28;20040;-54
2023/06/14 03:38:36;;;;;;;6.60;4.05;;;15.30;89.30;;;;;;5020467;28;20037;-54
2023/06/14 03:41:22;;;;;;;4.55;3.90;;;15.30;89.00;;;;;;5018359;28;20076;-51
2023/06/14 03:44:08;;;;;;;5.82;4.25;;;15.40;89.10;;;;;;5014215;28;20118;-51
2023/06/14 03:46:54;;;;;;;6.85;4.35;;;15.50;88.50;;;;;;5014021;28;20022;-52
2023/06/14 03:49:40;;;;;;;5.97;4.68;;;15.60;87.50;;;;;;5014020;28;20030;-48
2023/06/14 03:52:27;;;;;;;5.15;4.30;;;15.50;88.10;;;;;;5013823;28;20118;-51
2023/06/14 03:55:14;;;;;;;8.13;4.40;;;15.40;88.50;;;;;;5015666;28;20042;-51
2023/06/14 03:58:00;;;;;;;5.05;4.00;;;15.50;88.10;;;;;;5014170;28;20037;-49
2023/06/14 04:00:46;;;;;;;6.65;4.55;;;15.50;88.70;;;;;;5013604;28;20097;-49
2023/06/14 04:03:33;;;;;;;4.93;4.40;;;15.60;88.30;;;;;;5014166;28;20022;-51
2023/06/14 04:06:19;;;;;;;6.40;4.13;;;15.70;88.00;;;;;;5014154;28;20061;-56
2023/06/14 04:09:05;;;;;;;6.75;4.13;;;15.90;88.00;;;;;;5014845;28;20041;-50
2023/06/14 04:11:52;;;;;;;4.90;4.03;;;16.00;87.20;;;;;;5015312;28;20030;-51
2023/06/14 04:14:42;;;;;;;7.18;3.70;;;16.10;87.00;;;;;;5016010;28;20061;-49
2023/06/14 04:17:28;;;;;;;6.53;4.38;;;16.20;87.00;;;;;;5015287;28;20045;-47
2023/06/14 04:20:14;;;;;;;7.93;4.43;;;16.30;86.20;;;;;;5017003;28;20066;-49
2023/06/14 04:23:15;;;;;;;7.63;4.80;;;16.20;86.70;;;;;;5017076;28;20030;-48
2023/06/14 04:26:01;;;;;;;7.80;4.30;;;16.00;87.10;;;;;;5014117;28;20018;-50
2023/06/14 04:28:47;;;;;;;5.90;4.60;;;15.80;88.50;;;;;;5016485;28;20533;-49
2023/06/14 04:31:33;;;;;;;7.00;4.65;;;15.80;88.30;;;;;;5015943;28;20084;-49
2023/06/14 04:34:21;;;;;;;5.63;4.70;;;15.90;88.40;;;;;;5019317;28;20050;-48
2023/06/14 04:37:11;;;;;;;7.75;4.95;;;15.60;89.50;;;;;;5028708;28;20076;-50
2023/06/14 04:39:57;;;;;;;22.88;8.98;;;15.80;89.00;;;;;;5039015;28;20029;-54
2023/06/14 04:42:44;;;;;;;8.20;5.05;;;15.80;89.50;;;;;;5037772;28;20022;-54
2023/06/14 04:45:33;;;;;;;8.50;4.68;;;16.20;89.10;;;;;;5041281;28;20117;-52
2023/06/14 04:48:20;;;;;;;18.67;5.95;;;16.40;87.90;;;;;;5038615;28;20498;-54
2023/06/14 04:51:07;;;;;;;6.90;5.35;;;16.50;86.70;;;;;;5035526;28;20048;-52
2023/06/14 04:53:56;;;;;;;6.95;5.50;;;16.30;87.20;;;;;;5037028;28;20025;-53
2023/06/14 04:56:42;;;;;;;7.82;5.53;;;16.20;87.60;;;;;;5043518;28;20056;-65
2023/06/14 04:59:33;;;;;;;7.22;5.03;;;16.20;87.70;;;;;;5038621;28;20040;-51
2023/06/14 05:02:19;;;;;;;7.30;4.82;;;16.20;89.10;;;;;;5019947;28;20030;-55
2023/06/14 05:05:06;;;;;;;6.40;5.35;;;16.30;87.60;;;;;;5026365;28;20037;-56
2023/06/14 05:07:52;;;;;;;6.95;4.90;;;16.30;88.30;;;;;;5027456;28;20034;-48
2023/06/14 05:10:38;;;;;;;8.45;5.50;;;16.40;88.50;;;;;;5030139;28;20026;-50
2023/06/14 05:13:27;;;;;;;8.93;5.45;;;16.40;88.20;;;;;;5040882;28;20069;-48
2023/06/14 05:16:15;;;;;;;7.00;4.95;;;16.50;87.50;;;;;;5023034;28;20091;-51
2023/06/14 05:19:06;;;;;;;7.97;6.15;;;16.50;88.70;;;;;;5025681;28;20520;-52
2023/06/14 05:21:53;;;;;;;6.72;6.13;;;16.50;88.20;;;;;;5022821;28;20045;-49
2023/06/14 05:24:39;;;;;;;7.63;5.72;;;16.40;88.20;;;;;;5023528;28;20061;-50
2023/06/14 05:27:25;;;;;;;8.82;5.90;;;16.40;87.70;;;;;;5022836;28;20402;-51
2023/06/14 05:30:11;;;;;;;6.85;5.85;;;16.40;88.50;;;;;;5021284;28;20018;-48
2023/06/14 05:32:57;;;;;;;11.05;8.85;;;16.30;89.70;;;;;;5021688;28;20026;-48
2023/06/14 05:35:43;;;;;;;8.57;6.25;;;16.30;89.90;;;;;;5021249;28;20041;-53
2023/06/14 05:38:29;;;;;;;7.43;6.72;;;16.40;89.60;;;;;;5020071;28;20064;-48
2023/06/14 05:41:15;;;;;;;6.45;5.80;;;16.30;89.70;;;;;;5018920;28;20026;-50
2023/06/14 05:44:01;;;;;;;9.50;6.65;;;16.40;90.00;;;;;;5022611;28;20132;-48
2023/06/14 05:46:47;;;;;;;8.25;6.32;;;16.60;89.70;;;;;;5021728;28;20030;-49
2023/06/14 05:49:33;;;;;;;8.20;6.80;;;16.60;89.60;;;;;;5021485;28;20037;-49
2023/06/14 05:52:19;;;;;;;8.75;6.75;;;16.50;90.40;;;;;;5020939;28;20037;-48
2023/06/14 05:55:05;;;;;;;10.48;7.32;;;16.60;90.10;;;;;;5023243;28;20029;-52
2023/06/14 05:57:51;;;;;;;13.05;6.38;;;16.50;90.20;;;;;;5022183;28;20527;-50
2023/06/14 06:00:37;;;;;;;9.35;7.70;;;16.40;90.60;;;;;;5020314;28;20096;-52
2023/06/14 06:03:23;;;;;;;9.02;6.95;;;16.60;90.40;;;;;;5032099;28;20022;-51
2023/06/14 06:06:09;;;;;;;8.50;6.53;;;16.80;90.00;;;;;;5030664;28;20088;-57
2023/06/14 06:08:55;;;;;;;7.28;6.60;;;17.00;89.90;;;;;;5025424;28;20026;-48
2023/06/14 06:11:41;;;;;;;7.82;6.22;;;17.20;89.70;;;;;;5027296;28;20030;-48
2023/06/14 06:14:27;;;;;;;14.73;7.40;;;17.40;89.50;;;;;;5023754;28;20048;-50
2023/06/14 06:17:13;;;;;;;9.20;6.78;;;17.60;88.50;;;;;;5023355;28;20084;-52
2023/06/14 06:19:59;;;;;;;10.75;6.65;;;17.80;88.40;;;;;;5026986;28;20029;-50
2023/06/14 06:22:45;;;;;;;7.75;6.95;;;18.00;88.30;;;;;;5029916;28;20120;-53
2023/06/14 06:25:31;;;;;;;13.07;7.00;;;18.00;86.30;;;;;;5029130;28;20029;-54
2023/06/14 06:28:17;;;;;;;9.10;7.10;;;17.80;88.30;;;;;;5024811;28;20502;-55
2023/06/14 06:31:03;;;;;;;8.27;6.60;;;17.80;88.00;;;;;;5025925;28;20487;-52
2023/06/14 06:33:50;;;;;;;9.05;7.55;;;17.90;87.80;;;;;;5026673;28;20545;-47
2023/06/14 06:36:36;;;;;;;17.95;8.57;;;17.90;87.60;;;;;;5022573;28;20030;-50
2023/06/14 06:39:22;;;;;;;9.55;7.05;;;17.90;87.30;;;;;;5028995;28;20033;-48
2023/06/14 06:42:08;;;;;;;9.23;6.75;;;17.70;87.60;;;;;;5033504;28;20034;-51
2023/06/14 06:44:54;;;;;;;7.53;6.55;;;17.80;87.40;;;;;;5034975;28;20034;-50
2023/06/14 06:47:40;;;;;;;10.38;7.13;;;17.90;87.50;;;;;;5034205;28;20052;-52
2023/06/14 06:50:26;;;;;;;10.02;6.43;;;18.20;86.70;;;;;;5034304;28;20107;-51
2023/06/14 06:53:12;;;;;;;9.55;7.45;;;18.20;86.60;;;;;;5033252;28;20499;-50
2023/06/14 06:55:58;;;;;;;10.18;7.20;;;18.30;85.50;;;;;;5033750;28;20063;-49
2023/06/14 06:58:44;;;;;;;10.52;7.53;;;18.40;84.70;;;;;;5038630;28;20025;-52
2023/06/14 07:01:30;;;;;;;7.88;6.68;;;18.40;84.70;;;;;;5033890;28;20044;-48
2023/06/14 07:04:16;;;;;;;7.35;6.47;;;18.50;84.40;;;;;;5048232;28;20037;-49
2023/06/14 07:07:02;;;;;;;7.70;6.90;;;18.60;84.10;;;;;;5035594;28;20080;-49
2023/06/14 07:09:48;;;;;;;9.75;5.85;;;18.70;83.70;;;;;;5033890;28;20025;-49
2023/06/14 07:12:39;;;;;;;8.90;6.32;;;18.80;83.80;;;;;;5032253;28;20497;-49
2023/06/14 07:15:24;;;;;;;10.75;6.47;;;18.70;81.90;;;;;;5033730;28;20094;-52
2023/06/14 07:18:10;;;;;;;8.85;6.25;;;18.80;82.50;;;;;;5032987;28;20533;-48
2023/06/14 07:20:57;;;;;;;10.50;6.35;;;18.90;81.90;;;;;;5034608;28;20547;-49
2023/06/14 07:23:42;;;;;;;9.35;6.22;;;18.90;80.80;;;;;;5031063;28;20727;-51
2023/06/14 07:26:28;;;;;;;8.23;6.60;;;18.80;81.00;;;;;;5020359;28;20034;-48
2023/06/14 07:29:16;;;;;;;6.78;5.93;;;18.80;80.60;;;;;;5026202;28;20043;-50
2023/06/14 07:32:02;;;;;;;7.57;6.07;;;18.90;80.80;;;;;;5027874;28;20061;-50
2023/06/14 07:34:48;;;;;;;7.22;6.07;;;18.90;80.30;;;;;;5027318;28;20044;-51
2023/06/14 07:37:34;;;;;;;6.70;6.03;;;19.00;80.20;;;;;;5031662;28;20465;-48
2023/06/14 07:40:20;;;;;;;6.82;6.22;;;19.10;79.20;;;;;;5023786;28;20045;-49
2023/06/14 07:43:06;;;;;;;7.72;6.18;;;19.10;78.40;;;;;;5025673;28;20026;-49
2023/06/14 07:45:52;;;;;;;8.63;5.97;;;19.10;78.90;;;;;;5023990;28;20056;-51
2023/06/14 07:48:39;;;;;;;9.15;5.75;;;19.20;77.90;;;;;;5024157;28;20087;-51
2023/06/14 07:51:25;;;;;;;6.35;5.72;;;19.10;78.20;;;;;;5025113;28;20057;-52
2023/06/14 07:54:11;;;;;;;10.88;5.88;;;19.00;77.70;;;;;;5026116;28;20075;-51
2023/06/14 07:56:58;;;;;;;11.48;6.03;;;18.80;78.70;;;;;;5014069;28;20026;-50
2023/06/14 07:59:44;;;;;;;7.82;5.82;;;18.80;78.50;;;;;;5020579;28;20021;-48
2023/06/14 08:02:30;;;;;;;8.05;5.68;;;18.80;78.70;;;;;;5026156;28;20037;-52
2023/06/14 08:05:16;;;;;;;8.48;6.35;;;18.80;77.90;;;;;;5022923;28;20030;-50
2023/06/14 08:08:02;;;;;;;6.70;5.97;;;19.00;77.60;;;;;;5014328;28;20026;-49
2023/06/14 08:10:48;;;;;;;7.70;5.68;;;19.10;77.20;;;;;;5024031;28;20033;-49
2023/06/14 08:13:34;;;;;;;7.03;5.95;;;19.20;77.10;;;;;;5023905;28;20025;-53
2023/06/14 08:16:20;;;;;;;6.28;5.68;;;19.50;76.60;;;;;;5019693;28;20105;-50
2023/06/14 08:19:06;;;;;;;8.02;6.65;;;19.60;75.90;;;;;;5023096;28;20029;-51
2023/06/14 08:21:53;;;;;;;7.05;5.70;;;19.60;75.30;;;;;;5021358;28;20188;-53
2023/06/14 08:24:40;;;;;;;9.50;7.25;;;19.70;75.30;;;;;;5022128;28;20517;-51
2023/06/14 08:27:26;;;;;;;6.47;5.72;;;19.80;75.30;;;;;;5021900;28;20025;-50
2023/06/14 08:30:13;;;;;;;7.05;5.55;;;19.90;75.30;;;;;;5022562;28;20057;-55
2023/06/14 08:32:58;;;;;;;7.57;5.95;;;20.00;74.70;;;;;;5024134;28;20053;-53
2023/06/14 08:35:44;;;;;;;7.82;5.95;;;20.10;74.30;;;;;;5021449;28;20037;-54
2023/06/14 08:38:30;;;;;;;7.53;6.35;;;20.30;74.30;;;;;;5025211;28;20029;-52
2023/06/14 08:41:24;;;;;;;10.18;6.63;;;20.40;74.20;;;;;;5033823;28;20132;-51
2023/06/14 08:44:10;;;;;;;7.50;6.07;;;20.10;74.50;;;;;;5029303;28;20561;-52
2023/06/14 08:46:59;;;;;;;8.10;6.00;;;19.90;75.10;;;;;;5019116;28;20022;-52
2023/06/14 08:49:48;;;;;;;7.55;5.88;;;19.90;74.70;;;;;;5016496;28;20076;-54
2023/06/14 08:52:45;;;;;;;7.18;5.50;;;19.90;74.20;;;;;;5020318;28;20605;-55
2023/06/14 08:55:32;;;;;;;8.20;6.82;;;20.10;74.20;;;;;;5017722;28;20037;-52
2023/06/14 08:58:19;;;;;;;8.27;5.55;;;20.20;74.70;;;;;;5015010;28;20018;-51
2023/06/14 09:01:07;;;;;;;6.78;5.90;;;20.20;74.10;;;;;;5018236;28;20117;-50
2023/06/14 09:03:54;;;;;;;10.68;5.80;;;20.20;73.90;;;;;;5023437;28;20037;-50
2023/06/14 09:06:40;;;;;;;10.73;5.97;;;20.10;73.20;;;;;;5018324;28;20041;-52
2023/06/14 09:09:27;;;;;;;6.30;5.60;;;20.10;73.00;;;;;;5023188;28;20022;-51
2023/06/14 09:12:13;;;;;;;6.30;5.70;;;20.20;73.30;;;;;;5023751;28;20112;-55
2023/06/14 09:14:59;;;;;;;6.28;5.68;;;20.30;73.20;;;;;;5023588;28;20091;-50
2023/06/14 09:17:45;;;;;;;8.82;5.63;;;20.70;72.10;;;;;;5016506;28;20495;-50
2023/06/14 09:20:32;;;;;;;6.80;5.18;;;20.70;71.70;;;;;;5013862;28;20415;-50
2023/06/14 09:23:22;;;;;;;5.32;4.85;;;21.00;70.60;;;;;;5013079;28;20076;-51
2023/06/14 09:26:11;;;;;;;8.70;5.43;;;21.30;69.40;;;;;;5023819;28;20026;-57
2023/06/14 09:28:57;;;;;;;8.02;7.20;;;21.20;69.10;;;;;;5025991;28;20030;-52
2023/06/14 09:31:46;;;;;;;10.93;5.35;;;20.90;70.20;;;;;;5015292;28;20529;-53
2023/06/14 09:34:35;;;;;;;7.15;5.45;;;20.80;70.60;;;;;;5027962;28;20091;-52
2023/06/14 09:37:29;;;;;;;8.65;5.88;;;21.00;70.20;;;;;;5040474;28;20060;-54
2023/06/14 09:40:21;;;;;;;5.78;5.10;;;21.00;70.00;;;;;;5029673;28;20038;-53
2023/06/14 09:43:10;;;;;;;7.53;5.22;;;20.90;69.60;;;;;;5023773;28;20522;-54
2023/06/14 09:45:56;;;;;;;6.00;4.70;;;20.90;69.70;;;;;;5016590;28;20084;-52
2023/06/14 09:48:42;;;;;;;8.25;4.95;;;21.20;68.50;;;;;;5019879;28;20118;-53
2023/06/14 09:51:32;;;;;;;6.22;4.63;;;21.40;68.40;;;;;;5035607;28;20422;-52
2023/06/14 09:54:24;;;;;;;7.65;5.13;;;21.30;68.40;;;;;;5035784;28;20021;-52
2023/06/14 09:57:15;;;;;;;6.57;5.05;;;21.10;68.90;;;;;;5030174;28;20037;-56
2023/06/14 10:00:06;;;;;;;6.55;5.13;;;21.00;69.50;;;;;;5023172;28;20503;-58
2023/06/14 10:03:04;;;;;;;6.28;4.65;;;21.10;68.20;;;;;;5017943;28;20408;-59
2023/06/14 10:05:51;;;;;;;7.22;4.32;;;21.30;68.70;;;;;;5025526;28;20061;-57
2023/06/14 10:08:37;;;;;;;4.65;4.00;;;21.50;67.40;;;;;;5024216;28;20044;-55
2023/06/14 10:11:27;;;;;;;4.45;3.70;;;21.70;67.10;;;;;;5021835;28;20037;-57
2023/06/14 10:14:14;;;;;;;8.45;4.50;;;21.60;67.50;;;;;;5025124;28;20034;-54
2023/06/14 10:17:08;;;;;;;4.20;3.80;;;21.50;67.40;;;;;;5024919;28;20508;-55
2023/06/14 10:20:47;;;;;;;7.22;4.35;;;21.40;67.90;;;;;;5033261;28;20126;-54
2023/06/14 10:23:37;;;;;;;8.57;4.05;;;21.30;68.30;;;;;;4991432;28;20102;-55
2023/06/14 10:26:24;;;;;;;6.05;3.65;;;21.40;68.40;;;;;;5015738;28;20112;-55
2023/06/14 10:29:10;;;;;;;6.85;4.20;;;21.80;68.00;;;;;;5015250;28;20026;-56
2023/06/14 10:31:58;;;;;;;9.35;4.38;;;21.90;67.60;;;;;;5015401;28;20040;-56
2023/06/14 10:34:44;;;;;;;4.53;3.95;;;21.90;67.50;;;;;;5036887;28;20033;-55
2023/06/14 10:37:30;;;;;;;6.53;3.92;;;21.80;67.80;;;;;;5035302;28;20029;-53
2023/06/14 10:40:31;;;;;;;6.20;3.85;;;22.00;67.70;;;;;;5035233;28;20486;-52
2023/06/14 10:43:24;;;;;;;8.40;4.05;;;22.00;67.80;;;;;;5033997;28;20453;-55
2023/06/14 10:46:14;;;;;;;7.63;4.47;;;22.20;68.30;;;;;;5029878;28;20030;-53
2023/06/14 10:49:03;;;;;;;6.93;4.57;;;22.30;67.30;;;;;;5014883;28;20034;-52
2023/06/14 10:51:52;;;;;;;4.57;3.95;;;22.40;68.00;;;;;;5016413;28;20105;-56
2023/06/14 10:54:54;;;;;;;6.97;3.80;;;22.40;67.30;;;;;;5016445;28;20038;-57
2023/06/14 10:57:49;;;;;;;4.78;3.92;;;22.60;67.00;;;;;;5020372;28;20098;-57
2023/06/14 11:00:38;;;;;;;6.82;4.15;;;22.80;67.30;;;;;;5022403;28;20017;-54
2023/06/14 11:03:50;;;;;;;4.70;4.18;;;23.20;67.00;;;;;;5035885;28;20048;-54
2023/06/14 11:06:46;;;;;;;6.88;3.90;;;23.30;66.50;;;;;;5034407;28;20021;-55
2023/06/14 11:10:00;;;;;;;4.57;4.18;;;22.90;67.40;;;;;;5032984;28;20057;-54
2023/06/14 11:12:47;;;;;;;4.13;3.67;;;23.00;67.40;;;;;;5017183;28;20050;-56
2023/06/14 11:15:35;;;;;;;5.05;4.60;;;23.30;67.50;;;;;;5023157;28;20025;-54
2023/06/14 11:18:24;;;;;;;4.38;3.95;;;23.40;66.90;;;;;;5034536;28;20577;-55
2023/06/14 11:21:10;;;;;;;8.45;4.38;;;23.30;66.80;;;;;;5033645;28;20034;-53
2023/06/14 11:23:56;;;;;;;4.55;4.15;;;22.90;67.60;;;;;;5028726;28;20112;-55
2023/06/14 11:26:42;;;;;;;7.75;4.20;;;22.70;68.20;;;;;;5019907;28;20441;-56
2023/06/14 11:29:30;;;;;;;5.22;4.15;;;23.00;67.80;;;;;;5015873;28;20104;-54
2023/06/14 11:32:16;;;;;;;6.75;4.20;;;23.10;67.70;;;;;;5027319;28;20042;-54
2023/06/14 11:35:05;;;;;;;4.95;4.40;;;23.00;68.00;;;;;;5020837;28;20026;-53
2023/06/14 11:37:57;;;;;;;7.05;4.50;;;22.90;68.20;;;;;;5017802;28;20034;-51
2023/06/14 11:40:43;;;;;;;5.32;4.30;;;22.40;69.60;;;;;;5013589;28;20061;-54
2023/06/14 11:43:31;;;;;;;16.38;14.63;;;22.20;70.20;;;;;;5026397;28;20022;-55
2023/06/14 11:46:21;;;;;;;9.88;8.00;;;22.30;70.30;;;;;;5028665;28;20033;-55
2023/06/14 11:49:08;;;;;;;5.45;4.20;;;22.30;70.30;;;;;;5027741;28;20030;-52
2023/06/14 11:51:55;;;;;;;5.28;4.70;;;22.30;70.50;;;;;;5017754;28;20105;-56
2023/06/14 11:54:41;;;;;;;8.77;4.90;;;22.40;70.20;;;;;;5025993;28;20104;-56
2023/06/14 11:57:27;;;;;;;8.15;4.80;;;22.10;71.10;;;;;;5015384;28;20399;-57
2023/06/14 12:00:15;;;;;;;5.68;4.90;;;22.10;71.10;;;;;;5013576;28;20037;-53
2023/06/14 12:03:02;;;;;;;5.85;5.18;;;22.10;71.00;;;;;;5030205;28;20098;-56
2023/06/14 12:05:49;;;;;;;6.72;4.93;;;22.10;71.20;;;;;;5032849;28;20041;-56
2023/06/14 12:08:39;;;;;;;5.70;4.97;;;22.50;70.80;;;;;;5022719;28;20030;-56
2023/06/14 12:11:34;;;;;;;6.07;4.90;;;22.90;69.50;;;;;;5018771;28;20025;-58
2023/06/14 12:14:20;;;;;;;8.32;5.28;;;23.20;69.10;;;;;;5033057;28;20055;-55
2023/06/14 12:17:08;;;;;;;5.53;5.03;;;23.20;68.60;;;;;;5031694;28;20458;-57
2023/06/14 12:19:54;;;;;;;6.38;4.95;;;23.50;68.70;;;;;;5014673;28;20037;-56
2023/06/14 12:22:52;;;;;;;7.85;5.22;;;23.80;68.00;;;;;;5019291;28;20017;-57
2023/06/14 12:25:39;;;;;;;6.45;5.10;;;23.90;67.60;;;;;;5019641;28;20033;-52
2023/06/14 12:28:31;;;;;;;5.15;4.68;;;23.70;67.80;;;;;;5020669;28;20097;-53
2023/06/14 12:31:18;;;;;;;5.22;4.70;;;23.40;67.40;;;;;;5026145;28;20112;-52
2023/06/14 12:34:04;;;;;;;6.00;5.47;;;23.30;68.40;;;;;;5014695;28;20439;-54
2023/06/14 12:36:51;;;;;;;8.77;5.53;;;23.40;68.40;;;;;;5027635;28;20127;-54
2023/06/14 12:39:39;;;;;;;9.07;5.57;;;23.20;69.20;;;;;;5020084;28;20022;-56
2023/06/14 12:42:25;;;;;;;6.75;5.15;;;22.90;68.60;;;;;;5012376;28;20030;-54
2023/06/14 12:45:11;;;;;;;7.70;5.50;;;22.80;68.70;;;;;;5024893;28;20030;-52
2023/06/14 12:47:57;;;;;;;7.50;5.35;;;22.90;67.90;;;;;;5032191;28;20018;-53
2023/06/14 12:50:43;;;;;;;9.82;5.22;;;22.80;68.90;;;;;;5032858;28;20104;-54
2023/06/14 12:53:29;;;;;;;8.90;6.00;;;22.70;68.90;;;;;;5034362;28;20498;-52
2023/06/14 12:56:15;;;;;;;6.65;5.68;;;22.90;68.50;;;;;;5032531;28;20036;-52
2023/06/14 12:59:01;;;;;;;8.48;5.78;;;22.80;68.90;;;;;;5027275;28;20617;-54
2023/06/14 13:01:50;;;;;;;5.57;5.03;;;23.20;68.50;;;;;;5020738;28;20528;-54
2023/06/14 13:04:36;;;;;;;6.88;5.40;;;23.70;68.00;;;;;;5031764;28;20029;-55
2023/06/14 13:07:22;;;;;;;6.63;4.97;;;23.90;67.40;;;;;;5012611;28;20030;-53
2023/06/14 13:10:08;;;;;;;7.47;5.57;;;24.10;67.20;;;;;;5018800;28;20108;-52
2023/06/14 13:12:54;;;;;;;7.28;5.90;;;24.30;67.30;;;;;;5033328;28;20044;-54
2023/06/14 13:15:40;;;;;;;6.55;5.72;;;24.20;66.50;;;;;;5030782;28;20047;-56
2023/06/14 13:18:26;;;;;;;10.48;5.50;;;23.60;67.10;;;;;;5032191;28;20128;-66
2023/06/14 13:21:12;;;;;;;7.82;5.50;;;23.40;68.20;;;;;;5012947;28;20137;-54
2023/06/14 13:23:58;;;;;;;12.52;6.65;;;23.40;68.60;;;;;;5014859;28;20083;-51
2023/06/14 13:26:44;;;;;;;8.77;6.40;;;23.30;68.70;;;;;;5006931;28;20108;-54
2023/06/14 13:29:31;;;;;;;10.27;5.97;;;23.30;68.90;;;;;;5014113;28;20026;-55
2023/06/14 13:32:17;;;;;;;6.47;5.75;;;23.30;70.00;;;;;;5032481;28;20079;-56
2023/06/14 13:35:03;;;;;;;9.82;6.20;;;23.00;70.00;;;;;;5021121;28;20026;-53
2023/06/14 13:37:50;;;;;;;8.73;5.93;;;22.90;69.80;;;;;;5023669;28;20485;-55
2023/06/14 13:40:35;;;;;;;8.63;5.78;;;22.60;69.90;;;;;;5034352;28;20021;-52
2023/06/14 13:43:22;;;;;;;12.52;5.55;;;22.30;70.30;;;;;;5032126;28;20022;-56
2023/06/14 13:46:08;;;;;;;7.38;5.45;;;22.20;70.50;;;;;;5027033;28;20029;-55
2023/06/14 13:48:54;;;;;;;7.55;5.50;;;22.20;70.90;;;;;;5029714;28;20454;-57
2023/06/14 13:51:40;;;;;;;9.93;5.80;;;22.30;71.10;;;;;;5029658;28;20033;-53
2023/06/14 13:54:27;;;;;;;7.60;5.78;;;22.30;70.90;;;;;;5030421;28;20063;-55
2023/06/14 13:57:13;;;;;;;6.72;5.85;;;22.40;71.00;;;;;;5030832;28;20049;-56
2023/06/14 14:00:00;;;;;;;8.98;5.47;;;22.50;71.00;;;;;;5026294;28;20040;-56
2023/06/14 14:02:46;;;;;;;8.57;5.30;;;22.50;70.90;;;;;;5024689;28;20038;-54
2023/06/14 14:05:33;;;;;;;9.05;5.72;;;22.90;70.40;;;;;;5031861;28;20091;-56
2023/06/14 14:08:19;;;;;;;9.32;5.60;;;23.00;69.50;;;;;;5031109;28;20516;-55
2023/06/14 14:11:06;;;;;;;8.23;5.88;;;23.30;69.10;;;;;;5030869;28;20057;-53
2023/06/14 14:13:51;;;;;;;63.20;11.07;;;23.50;68.90;;;;;;5026762;28;20056;-55
2023/06/14 14:16:37;;;;;;;6.20;5.60;;;23.90;68.30;;;;;;5022015;28;20022;-53
2023/06/14 14:19:24;;;;;;;6.97;5.35;;;24.60;67.80;;;;;;5020621;28;20038;-54
2023/06/14 14:22:10;;;;;;;10.15;5.40;;;25.40;66.80;;;;;;5011874;28;20061;-52
2023/06/14 14:24:56;;;;;;;6.45;5.65;;;25.90;65.30;;;;;;5028601;28;20026;-53
2023/06/14 14:27:42;;;;;;;6.20;5.13;;;25.80;64.50;;;;;;5028802;28;20065;-50
2023/06/14 14:30:28;;;;;;;6.53;4.85;;;25.80;64.00;;;;;;5027074;28;20034;-51